sensor_id;sensor_type;location;lat;lon;timestamp;pressure;altitude;pressure_sealevel;temperature;humidity
12803;BME280;6465;42.700;23.278;2024-02-23T00:00:59;94729.09;;;7.55;66.33
12803;BME280;6465;42.700;23.278;2024-02-23T00:03:26;94730.97;;;7.53;66.53
12803;BME280;6465;42.700;23.278;2024-02-23T00:05:53;94720.53;;;7.53;66.47
12803;BME280;6465;42.700;23.278;2024-02-23T00:08:21;94720.44;;;7.55;66.10
12803;BME280;6465;42.700;23.278;2024-02-23T00:10:48;94722.78;;;7.61;66.12
12803;BME280;6465;42.700;23.278;2024-02-23T00:13:15;94716.34;;;7.49;66.70
12803;BME280;6465;42.700;23.278;2024-02-23T00:15:42;94723.00;;;7.56;66.45
12803;BME280;6465;42.700;23.278;2024-02-23T00:18:10;94723.91;;;7.55;66.60
12803;BME280;6465;42.700;23.278;2024-02-23T00:20:38;94711.16;;;7.49;66.43
12803;BME280;6465;42.700;23.278;2024-02-23T00:23:06;94713.06;;;7.46;66.75
12803;BME280;6465;42.700;23.278;2024-02-23T00:25:34;94715.44;;;7.50;66.53
12803;BME280;6465;42.700;23.278;2024-02-23T00:28:01;94712.22;;;7.45;67.12
12803;BME280;6465;42.700;23.278;2024-02-23T00:30:28;94705.31;;;7.44;67.46
12803;BME280;6465;42.700;23.278;2024-02-23T00:32:55;94718.53;;;7.40;67.87
12803;BME280;6465;42.700;23.278;2024-02-23T00:35:22;94721.84;;;7.43;68.04
12803;BME280;6465;42.700;23.278;2024-02-23T00:37:49;94701.22;;;7.39;68.92
12803;BME280;6465;42.700;23.278;2024-02-23T00:40:16;94700.38;;;7.38;67.59
12803;BME280;6465;42.700;23.278;2024-02-23T00:42:45;94676.28;;;7.33;66.83
12803;BME280;6465;42.700;23.278;2024-02-23T00:45:12;94706.22;;;7.43;67.61
12803;BME280;6465;42.700;23.278;2024-02-23T00:47:38;94690.84;;;7.37;68.14
12803;BME280;6465;42.700;23.278;2024-02-23T00:50:06;94702.06;;;7.39;67.38
12803;BME280;6465;42.700;23.278;2024-02-23T00:52:33;94694.16;;;7.41;67.77
12803;BME280;6465;42.700;23.278;2024-02-23T00:55:00;94685.31;;;7.45;67.04
12803;BME280;6465;42.700;23.278;2024-02-23T00:57:27;94688.94;;;7.41;67.11
12803;BME280;6465;42.700;23.278;2024-02-23T00:59:56;94693.41;;;7.39;67.54
12803;BME280;6465;42.700;23.278;2024-02-23T01:02:23;94696.91;;;7.38;67.91
12803;BME280;6465;42.700;23.278;2024-02-23T01:04:50;94683.16;;;7.34;67.96
12803;BME280;6465;42.700;23.278;2024-02-23T01:07:22;94681.41;;;7.35;68.92
12803;BME280;6465;42.700;23.278;2024-02-23T01:09:49;94669.22;;;7.35;68.05
12803;BME280;6465;42.700;23.278;2024-02-23T01:12:17;94687.63;;;7.32;67.67
12803;BME280;6465;42.700;23.278;2024-02-23T01:14:43;94680.66;;;7.33;68.10
12803;BME280;6465;42.700;23.278;2024-02-23T01:17:12;94680.72;;;7.31;67.88
12803;BME280;6465;42.700;23.278;2024-02-23T01:19:40;94680.94;;;7.27;68.01
12803;BME280;6465;42.700;23.278;2024-02-23T01:22:08;94667.81;;;7.28;68.69
12803;BME280;6465;42.700;23.278;2024-02-23T01:24:35;94659.59;;;7.37;67.41
12803;BME280;6465;42.700;23.278;2024-02-23T01:27:02;94667.53;;;7.34;67.63
12803;BME280;6465;42.700;23.278;2024-02-23T01:29:29;94658.97;;;7.32;68.16
12803;BME280;6465;42.700;23.278;2024-02-23T01:31:56;94668.47;;;7.33;68.57
12803;BME280;6465;42.700;23.278;2024-02-23T01:34:24;94651.78;;;7.37;68.68
12803;BME280;6465;42.700;23.278;2024-02-23T01:36:51;94649.06;;;7.40;67.18
12803;BME280;6465;42.700;23.278;2024-02-23T01:39:18;94655.19;;;7.39;67.60
12803;BME280;6465;42.700;23.278;2024-02-23T01:41:45;94649.31;;;7.34;68.20
12803;BME280;6465;42.700;23.278;2024-02-23T01:44:12;94662.16;;;7.39;68.27
12803;BME280;6465;42.700;23.278;2024-02-23T01:46:41;94664.94;;;7.34;68.42
12803;BME280;6465;42.700;23.278;2024-02-23T01:49:09;94659.81;;;7.33;68.98
12803;BME280;6465;42.700;23.278;2024-02-23T01:51:37;94650.88;;;7.38;68.40
12803;BME280;6465;42.700;23.278;2024-02-23T01:54:05;94661.50;;;7.34;68.14
12803;BME280;6465;42.700;23.278;2024-02-23T01:56:32;94638.88;;;7.34;68.41
12803;BME280;6465;42.700;23.278;2024-02-23T01:59:02;94642.91;;;7.41;67.30
12803;BME280;6465;42.700;23.278;2024-02-23T02:01:30;94642.34;;;7.35;67.59
12803;BME280;6465;42.700;23.278;2024-02-23T02:03:58;94645.16;;;7.30;67.62
12803;BME280;6465;42.700;23.278;2024-02-23T02:06:25;94637.97;;;7.35;67.81
12803;BME280;6465;42.700;23.278;2024-02-23T02:08:53;94657.13;;;7.34;67.65
12803;BME280;6465;42.700;23.278;2024-02-23T02:11:20;94638.13;;;7.32;67.70
12803;BME280;6465;42.700;23.278;2024-02-23T02:13:47;94646.78;;;7.33;67.88
12803;BME280;6465;42.700;23.278;2024-02-23T02:16:14;94631.56;;;7.42;67.28
12803;BME280;6465;42.700;23.278;2024-02-23T02:18:41;94630.66;;;7.43;67.14
12803;BME280;6465;42.700;23.278;2024-02-23T02:21:10;94627.44;;;7.38;67.25
12803;BME280;6465;42.700;23.278;2024-02-23T02:23:37;94638.81;;;7.36;67.72
12803;BME280;6465;42.700;23.278;2024-02-23T02:26:05;94638.25;;;7.29;68.36
12803;BME280;6465;42.700;23.278;2024-02-23T02:28:32;94631.50;;;7.25;68.50
12803;BME280;6465;42.700;23.278;2024-02-23T02:30:59;94628.41;;;7.17;68.90
12803;BME280;6465;42.700;23.278;2024-02-23T02:33:26;94628.44;;;7.15;69.48
12803;BME280;6465;42.700;23.278;2024-02-23T02:35:53;94637.25;;;7.13;69.39
12803;BME280;6465;42.700;23.278;2024-02-23T02:38:20;94646.91;;;7.11;69.22
12803;BME280;6465;42.700;23.278;2024-02-23T02:40:47;94633.31;;;7.04;69.53
12803;BME280;6465;42.700;23.278;2024-02-23T02:43:16;94609.34;;;6.96;69.57
12803;BME280;6465;42.700;23.278;2024-02-23T02:45:43;94635.84;;;7.06;69.34
12803;BME280;6465;42.700;23.278;2024-02-23T02:48:10;94642.88;;;7.04;69.67
12803;BME280;6465;42.700;23.278;2024-02-23T02:50:37;94639.41;;;7.03;69.66
12803;BME280;6465;42.700;23.278;2024-02-23T02:53:05;94644.56;;;7.05;70.15
12803;BME280;6465;42.700;23.278;2024-02-23T02:55:32;94654.41;;;6.98;70.40
12803;BME280;6465;42.700;23.278;2024-02-23T02:57:59;94642.50;;;6.93;70.86
12803;BME280;6465;42.700;23.278;2024-02-23T03:00:27;94624.13;;;6.96;70.64
12803;BME280;6465;42.700;23.278;2024-02-23T03:02:54;94636.81;;;7.03;70.17
12803;BME280;6465;42.700;23.278;2024-02-23T03:05:21;94645.25;;;7.08;70.10
12803;BME280;6465;42.700;23.278;2024-02-23T03:07:48;94643.00;;;7.01;70.41
12803;BME280;6465;42.700;23.278;2024-02-23T03:10:15;94645.53;;;7.02;70.84
12803;BME280;6465;42.700;23.278;2024-02-23T03:12:42;94652.66;;;6.99;71.66
12803;BME280;6465;42.700;23.278;2024-02-23T03:15:09;94649.31;;;6.95;70.90
12803;BME280;6465;42.700;23.278;2024-02-23T03:17:38;94646.66;;;6.97;70.85
12803;BME280;6465;42.700;23.278;2024-02-23T03:20:05;94667.75;;;6.91;71.13
12803;BME280;6465;42.700;23.278;2024-02-23T03:22:34;94653.03;;;6.90;71.58
12803;BME280;6465;42.700;23.278;2024-02-23T03:25:02;94650.44;;;6.90;72.02
12803;BME280;6465;42.700;23.278;2024-02-23T03:27:34;94644.25;;;6.92;71.99
12803;BME280;6465;42.700;23.278;2024-02-23T03:30:02;94631.59;;;7.03;71.24
12803;BME280;6465;42.700;23.278;2024-02-23T03:32:30;94642.09;;;7.02;70.94
12803;BME280;6465;42.700;23.278;2024-02-23T03:35:03;94637.78;;;7.01;71.49
12803;BME280;6465;42.700;23.278;2024-02-23T03:37:30;94643.00;;;7.01;71.44
12803;BME280;6465;42.700;23.278;2024-02-23T03:39:57;94605.41;;;6.88;71.30
12803;BME280;6465;42.700;23.278;2024-02-23T03:42:25;94634.16;;;7.05;71.39
12803;BME280;6465;42.700;23.278;2024-02-23T03:44:52;94651.75;;;7.00;71.78
12803;BME280;6465;42.700;23.278;2024-02-23T03:47:19;94630.63;;;7.06;71.32
12803;BME280;6465;42.700;23.278;2024-02-23T03:49:46;94647.00;;;7.08;71.43
12803;BME280;6465;42.700;23.278;2024-02-23T03:52:14;94637.38;;;7.10;71.27
12803;BME280;6465;42.700;23.278;2024-02-23T03:54:42;94644.41;;;7.08;71.47
12803;BME280;6465;42.700;23.278;2024-02-23T03:57:09;94633.16;;;7.07;71.80
12803;BME280;6465;42.700;23.278;2024-02-23T03:59:36;94653.28;;;7.04;71.87
12803;BME280;6465;42.700;23.278;2024-02-23T04:02:04;94636.59;;;7.08;71.71
12803;BME280;6465;42.700;23.278;2024-02-23T04:04:31;94633.72;;;7.14;71.42
12803;BME280;6465;42.700;23.278;2024-02-23T04:06:58;94645.19;;;7.10;71.47
12803;BME280;6465;42.700;23.278;2024-02-23T04:09:26;94633.25;;;7.06;72.00
12803;BME280;6465;42.700;23.278;2024-02-23T04:11:53;94648.91;;;7.04;71.61
12803;BME280;6465;42.700;23.278;2024-02-23T04:14:20;94641.97;;;7.05;71.58
12803;BME280;6465;42.700;23.278;2024-02-23T04:16:48;94653.84;;;7.10;71.10
12803;BME280;6465;42.700;23.278;2024-02-23T04:19:14;94668.63;;;7.10;71.48
12803;BME280;6465;42.700;23.278;2024-02-23T04:21:41;94634.00;;;7.08;71.45
12803;BME280;6465;42.700;23.278;2024-02-23T04:24:08;94651.25;;;7.10;71.09
12803;BME280;6465;42.700;23.278;2024-02-23T04:26:37;94669.69;;;7.06;71.41
12803;BME280;6465;42.700;23.278;2024-02-23T04:29:04;94622.59;;;6.92;72.16
12803;BME280;6465;42.700;23.278;2024-02-23T04:31:31;94653.81;;;6.92;72.10
12803;BME280;6465;42.700;23.278;2024-02-23T04:33:57;94643.78;;;6.83;72.57
12803;BME280;6465;42.700;23.278;2024-02-23T04:36:24;94648.47;;;6.95;72.44
12803;BME280;6465;42.700;23.278;2024-02-23T04:38:51;94643.00;;;7.01;72.14
12803;BME280;6465;42.700;23.278;2024-02-23T04:41:20;94651.78;;;6.98;72.48
12803;BME280;6465;42.700;23.278;2024-02-23T04:43:49;94642.09;;;7.02;72.14
12803;BME280;6465;42.700;23.278;2024-02-23T04:46:16;94666.84;;;6.92;72.43
12803;BME280;6465;42.700;23.278;2024-02-23T04:48:44;94652.66;;;6.99;72.49
12803;BME280;6465;42.700;23.278;2024-02-23T04:51:11;94653.94;;;6.89;72.74
12803;BME280;6465;42.700;23.278;2024-02-23T04:53:38;94665.59;;;6.80;73.13
12803;BME280;6465;42.700;23.278;2024-02-23T04:56:05;94643.41;;;6.71;73.18
12803;BME280;6465;42.700;23.278;2024-02-23T04:58:32;94662.78;;;6.64;73.36
12803;BME280;6465;42.700;23.278;2024-02-23T05:01:01;94663.00;;;6.60;73.60
12803;BME280;6465;42.700;23.278;2024-02-23T05:03:29;94662.00;;;6.62;73.75
12803;BME280;6465;42.700;23.278;2024-02-23T05:05:56;94661.63;;;6.51;74.35
12803;BME280;6465;42.700;23.278;2024-02-23T05:08:23;94644.28;;;6.30;74.11
12803;BME280;6465;42.700;23.278;2024-02-23T05:10:50;94668.69;;;6.48;74.59
12803;BME280;6465;42.700;23.278;2024-02-23T05:13:17;94669.59;;;6.47;74.91
12803;BME280;6465;42.700;23.278;2024-02-23T05:15:44;94676.34;;;6.30;74.77
12803;BME280;6465;42.700;23.278;2024-02-23T05:18:13;94693.03;;;6.25;75.02
12803;BME280;6465;42.700;23.278;2024-02-23T05:20:40;94684.94;;;6.11;75.86
12803;BME280;6465;42.700;23.278;2024-02-23T05:23:07;94681.69;;;6.06;76.06
12803;BME280;6465;42.700;23.278;2024-02-23T05:25:34;94701.63;;;6.05;76.39
12803;BME280;6465;42.700;23.278;2024-02-23T05:28:01;94693.97;;;6.01;76.85
12803;BME280;6465;42.700;23.278;2024-02-23T05:30:28;94690.72;;;5.95;77.28
12803;BME280;6465;42.700;23.278;2024-02-23T05:32:56;94685.28;;;6.02;76.85
12803;BME280;6465;42.700;23.278;2024-02-23T05:35:25;94687.84;;;6.03;76.94
12803;BME280;6465;42.700;23.278;2024-02-23T05:37:53;94685.84;;;6.10;76.40
12803;BME280;6465;42.700;23.278;2024-02-23T05:40:20;94695.56;;;6.05;76.50
12803;BME280;6465;42.700;23.278;2024-02-23T05:42:47;94680.88;;;6.04;77.04
12803;BME280;6465;42.700;23.278;2024-02-23T05:45:14;94696.66;;;5.99;76.79
12803;BME280;6465;42.700;23.278;2024-02-23T05:47:41;94685.84;;;6.10;76.41
12803;BME280;6465;42.700;23.278;2024-02-23T05:50:08;94692.00;;;6.07;76.93
12803;BME280;6465;42.700;23.278;2024-02-23T05:52:37;94708.38;;;6.09;76.76
12803;BME280;6465;42.700;23.278;2024-02-23T05:55:05;94702.47;;;6.06;77.06
12803;BME280;6465;42.700;23.278;2024-02-23T05:57:32;94705.72;;;6.11;77.07
12803;BME280;6465;42.700;23.278;2024-02-23T05:59:59;94707.66;;;6.06;77.62
12803;BME280;6465;42.700;23.278;2024-02-23T06:02:26;94706.44;;;6.14;77.57
12803;BME280;6465;42.700;23.278;2024-02-23T06:04:53;94710.94;;;6.11;77.61
12803;BME280;6465;42.700;23.278;2024-02-23T06:07:19;94713.28;;;6.17;77.64
12803;BME280;6465;42.700;23.278;2024-02-23T06:09:55;94727.75;;;6.24;76.74
12803;BME280;6465;42.700;23.278;2024-02-23T06:12:22;94707.91;;;6.21;77.33
12803;BME280;6465;42.700;23.278;2024-02-23T06:14:50;94714.06;;;6.19;76.73
12803;BME280;6465;42.700;23.278;2024-02-23T06:17:17;94719.88;;;6.25;76.64
12803;BME280;6465;42.700;23.278;2024-02-23T06:19:44;94713.59;;;6.31;76.75
12803;BME280;6465;42.700;23.278;2024-02-23T06:22:11;94724.53;;;6.39;76.45
12803;BME280;6465;42.700;23.278;2024-02-23T06:24:38;94732.19;;;6.42;76.15
12803;BME280;6465;42.700;23.278;2024-02-23T06:27:06;94725.00;;;6.49;75.85
12803;BME280;6465;42.700;23.278;2024-02-23T06:29:33;94717.44;;;6.64;75.62
12803;BME280;6465;42.700;23.278;2024-02-23T06:32:00;94731.13;;;6.68;75.07
12803;BME280;6465;42.700;23.278;2024-02-23T06:34:28;94732.72;;;6.72;74.79
12803;BME280;6465;42.700;23.278;2024-02-23T06:36:55;94723.66;;;6.81;74.93
12803;BME280;6465;42.700;23.278;2024-02-23T06:39:22;94737.09;;;6.92;74.28
12803;BME280;6465;42.700;23.278;2024-02-23T06:41:49;94720.50;;;6.94;73.77
12803;BME280;6465;42.700;23.278;2024-02-23T06:44:17;94718.88;;;6.92;73.25
12803;BME280;6465;42.700;23.278;2024-02-23T06:46:44;94740.94;;;7.03;73.10
12803;BME280;6465;42.700;23.278;2024-02-23T06:49:11;94730.47;;;7.05;73.00
12803;BME280;6465;42.700;23.278;2024-02-23T06:51:38;94730.41;;;7.06;73.08
12803;BME280;6465;42.700;23.278;2024-02-23T06:54:06;94724.09;;;7.12;72.49
12803;BME280;6465;42.700;23.278;2024-02-23T06:56:33;94733.66;;;7.11;72.33
12803;BME280;6465;42.700;23.278;2024-02-23T06:59:02;94732.75;;;7.12;72.48
12803;BME280;6465;42.700;23.278;2024-02-23T07:01:30;94741.91;;;7.21;72.13
12803;BME280;6465;42.700;23.278;2024-02-23T07:03:59;94704.81;;;7.16;71.71
12803;BME280;6465;42.700;23.278;2024-02-23T07:06:26;94737.09;;;7.32;71.48
12803;BME280;6465;42.700;23.278;2024-02-23T07:08:56;94743.22;;;7.31;71.63
12803;BME280;6465;42.700;23.278;2024-02-23T07:11:23;94741.31;;;7.35;71.56
12803;BME280;6465;42.700;23.278;2024-02-23T07:13:49;94734.88;;;7.43;71.59
12803;BME280;6465;42.700;23.278;2024-02-23T07:16:17;94737.47;;;7.43;71.46
12803;BME280;6465;42.700;23.278;2024-02-23T07:18:46;94721.22;;;7.57;71.35
12803;BME280;6465;42.700;23.278;2024-02-23T07:21:12;94721.22;;;7.57;71.13
12803;BME280;6465;42.700;23.278;2024-02-23T07:23:40;94723.78;;;7.59;71.21
12803;BME280;6465;42.700;23.278;2024-02-23T07:26:07;94726.03;;;7.66;71.31
12803;BME280;6465;42.700;23.278;2024-02-23T07:28:33;94712.53;;;7.77;70.11
12803;BME280;6465;42.700;23.278;2024-02-23T07:31:00;94694.22;;;7.60;70.47
12803;BME280;6465;42.700;23.278;2024-02-23T07:33:27;94722.38;;;7.89;70.41
12803;BME280;6465;42.700;23.278;2024-02-23T07:35:56;94730.19;;;7.89;71.02
12803;BME280;6465;42.700;23.278;2024-02-23T07:38:22;94708.94;;;7.98;70.89
12803;BME280;6465;42.700;23.278;2024-02-23T07:40:50;94723.50;;;8.02;70.94
12803;BME280;6465;42.700;23.278;2024-02-23T07:43:16;94725.25;;;8.02;71.27
12803;BME280;6465;42.700;23.278;2024-02-23T07:45:44;94733.94;;;8.02;71.64
12803;BME280;6465;42.700;23.278;2024-02-23T07:48:11;94717.19;;;8.08;71.82
12803;BME280;6465;42.700;23.278;2024-02-23T07:50:38;94704.41;;;8.20;71.33
12803;BME280;6465;42.700;23.278;2024-02-23T07:53:06;94710.03;;;8.30;71.47
12803;BME280;6465;42.700;23.278;2024-02-23T07:55:33;94729.16;;;8.30;71.77
12803;BME280;6465;42.700;23.278;2024-02-23T07:58:00;94723.94;;;8.30;72.22
12803;BME280;6465;42.700;23.278;2024-02-23T08:00:27;94721.75;;;8.40;71.52
12803;BME280;6465;42.700;23.278;2024-02-23T08:02:54;94715.53;;;8.43;71.54
12803;BME280;6465;42.700;23.278;2024-02-23T08:05:22;94713.94;;;8.57;71.42
12803;BME280;6465;42.700;23.278;2024-02-23T08:07:49;94724.03;;;8.65;71.05
12803;BME280;6465;42.700;23.278;2024-02-23T08:10:18;94718.50;;;8.71;71.46
12803;BME280;6465;42.700;23.278;2024-02-23T08:12:44;94704.22;;;8.78;71.21
12803;BME280;6465;42.700;23.278;2024-02-23T08:15:12;94720.13;;;8.91;71.28
12803;BME280;6465;42.700;23.278;2024-02-23T08:17:39;94717.13;;;8.98;71.25
12803;BME280;6465;42.700;23.278;2024-02-23T08:20:06;94701.69;;;9.11;70.06
12803;BME280;6465;42.700;23.278;2024-02-23T08:22:34;94721.13;;;9.23;69.88
12803;BME280;6465;42.700;23.278;2024-02-23T08:25:01;94703.13;;;9.34;70.17
12803;BME280;6465;42.700;23.278;2024-02-23T08:27:29;94704.34;;;9.44;69.73
12803;BME280;6465;42.700;23.278;2024-02-23T08:29:56;94710.63;;;9.57;69.04
12803;BME280;6465;42.700;23.278;2024-02-23T08:32:23;94706.28;;;9.73;69.28
12803;BME280;6465;42.700;23.278;2024-02-23T08:34:50;94722.84;;;9.89;68.48
12803;BME280;6465;42.700;23.278;2024-02-23T08:37:18;94703.94;;;10.00;68.47
12803;BME280;6465;42.700;23.278;2024-02-23T08:39:45;94699.81;;;10.12;67.60
12803;BME280;6465;42.700;23.278;2024-02-23T08:42:12;94698.25;;;10.25;66.24
12803;BME280;6465;42.700;23.278;2024-02-23T08:44:40;94693.38;;;10.35;65.72
12803;BME280;6465;42.700;23.278;2024-02-23T08:47:08;94696.28;;;10.44;65.95
12803;BME280;6465;42.700;23.278;2024-02-23T08:49:35;94700.44;;;10.48;66.08
12803;BME280;6465;42.700;23.278;2024-02-23T08:52:02;94701.78;;;10.55;64.81
12803;BME280;6465;42.700;23.278;2024-02-23T08:54:29;94700.44;;;10.64;64.97
12803;BME280;6465;42.700;23.278;2024-02-23T08:56:56;94708.16;;;10.81;64.15
12803;BME280;6465;42.700;23.278;2024-02-23T08:59:23;94707.16;;;10.84;63.73
12803;BME280;6465;42.700;23.278;2024-02-23T09:01:51;94697.66;;;10.97;62.95
12803;BME280;6465;42.700;23.278;2024-02-23T09:04:18;94694.03;;;11.13;61.85
12803;BME280;6465;42.700;23.278;2024-02-23T09:06:45;94688.53;;;11.32;60.96
12803;BME280;6465;42.700;23.278;2024-02-23T09:09:14;94694.66;;;11.47;60.39
12803;BME280;6465;42.700;23.278;2024-02-23T09:11:42;94683.91;;;11.66;59.58
12803;BME280;6465;42.700;23.278;2024-02-23T09:14:09;94688.91;;;11.84;59.46
12803;BME280;6465;42.700;23.278;2024-02-23T09:16:36;94695.34;;;11.93;58.17
12803;BME280;6465;42.700;23.278;2024-02-23T09:19:04;94697.13;;;11.93;58.48
12803;BME280;6465;42.700;23.278;2024-02-23T09:21:31;94686.38;;;11.97;58.45
12803;BME280;6465;42.700;23.278;2024-02-23T09:23:58;94685.06;;;12.04;58.65
12803;BME280;6465;42.700;23.278;2024-02-23T09:26:25;94683.28;;;12.05;58.13
12803;BME280;6465;42.700;23.278;2024-02-23T09:28:52;94691.03;;;12.06;57.96
12803;BME280;6465;42.700;23.278;2024-02-23T09:31:19;94684.28;;;12.16;57.49
12803;BME280;6465;42.700;23.278;2024-02-23T09:33:46;94682.41;;;12.18;57.74
12803;BME280;6465;42.700;23.278;2024-02-23T09:36:16;94677.69;;;12.23;57.98
12803;BME280;6465;42.700;23.278;2024-02-23T09:38:43;94692.31;;;12.27;56.78
12803;BME280;6465;42.700;23.278;2024-02-23T09:41:17;94694.94;;;12.27;57.84
12803;BME280;6465;42.700;23.278;2024-02-23T09:43:46;94693.81;;;12.32;57.50
12803;BME280;6465;42.700;23.278;2024-02-23T09:46:15;94702.41;;;12.34;57.45
12803;BME280;6465;42.700;23.278;2024-02-23T09:48:43;94689.25;;;12.48;57.49
12803;BME280;6465;42.700;23.278;2024-02-23T09:51:10;94683.63;;;12.54;56.93
12803;BME280;6465;42.700;23.278;2024-02-23T09:53:39;94687.34;;;12.64;56.10
12803;BME280;6465;42.700;23.278;2024-02-23T09:56:08;94676.63;;;12.67;56.83
12803;BME280;6465;42.700;23.278;2024-02-23T09:58:36;94680.34;;;12.77;56.88
12803;BME280;6465;42.700;23.278;2024-02-23T10:01:04;94679.00;;;12.84;57.42
12803;BME280;6465;42.700;23.278;2024-02-23T10:03:31;94679.47;;;13.03;57.35
12803;BME280;6465;42.700;23.278;2024-02-23T10:05:58;94669.00;;;13.16;55.71
12803;BME280;6465;42.700;23.278;2024-02-23T10:08:27;94672.19;;;13.34;54.96
12803;BME280;6465;42.700;23.278;2024-02-23T10:10:55;94668.94;;;13.43;53.87
12803;BME280;6465;42.700;23.278;2024-02-23T10:13:23;94676.53;;;13.60;53.77
12803;BME280;6465;42.700;23.278;2024-02-23T10:15:50;94658.53;;;13.79;52.65
12803;BME280;6465;42.700;23.278;2024-02-23T10:18:17;94658.09;;;13.85;53.32
12803;BME280;6465;42.700;23.278;2024-02-23T10:20:45;94662.50;;;13.98;52.21
12803;BME280;6465;42.700;23.278;2024-02-23T10:23:12;94668.28;;;14.03;51.70
12803;BME280;6465;42.700;23.278;2024-02-23T10:25:39;94658.34;;;14.19;50.76
12803;BME280;6465;42.700;23.278;2024-02-23T10:28:08;94654.94;;;14.29;50.95
12803;BME280;6465;42.700;23.278;2024-02-23T10:30:36;94651.34;;;14.43;51.06
12803;BME280;6465;42.700;23.278;2024-02-23T10:33:05;94648.91;;;14.53;50.77
12803;BME280;6465;42.700;23.278;2024-02-23T10:35:32;94639.41;;;14.50;50.92
12803;BME280;6465;42.700;23.278;2024-02-23T10:38:05;94634.38;;;14.47;51.07
12803;BME280;6465;42.700;23.278;2024-02-23T10:40:39;94635.38;;;14.57;50.90
12803;BME280;6465;42.700;23.278;2024-02-23T10:43:12;94614.75;;;14.51;49.37
12803;BME280;6465;42.700;23.278;2024-02-23T10:45:39;94629.75;;;14.62;50.34
12803;BME280;6465;42.700;23.278;2024-02-23T10:48:08;94623.16;;;14.56;50.28
12803;BME280;6465;42.700;23.278;2024-02-23T10:50:36;94627.03;;;14.63;49.13
12803;BME280;6465;42.700;23.278;2024-02-23T10:53:04;94625.09;;;14.54;50.00
12803;BME280;6465;42.700;23.278;2024-02-23T10:55:36;94620.47;;;14.45;51.02
12803;BME280;6465;42.700;23.278;2024-02-23T10:58:05;94606.66;;;14.42;50.26
12803;BME280;6465;42.700;23.278;2024-02-23T11:00:38;94621.75;;;14.40;49.83
12803;BME280;6465;42.700;23.278;2024-02-23T11:03:06;94602.31;;;14.53;49.91
12803;BME280;6465;42.700;23.278;2024-02-23T11:05:33;94610.03;;;14.44;50.07
12803;BME280;6465;42.700;23.278;2024-02-23T11:08:00;94603.63;;;14.48;50.18
12803;BME280;6465;42.700;23.278;2024-02-23T11:10:27;94602.97;;;14.44;50.75
12803;BME280;6465;42.700;23.278;2024-02-23T11:12:58;94601.38;;;14.54;49.54
12803;BME280;6465;42.700;23.278;2024-02-23T11:15:26;94587.16;;;14.44;49.99
12803;BME280;6465;42.700;23.278;2024-02-23T11:17:55;94588.00;;;14.45;50.14
12803;BME280;6465;42.700;23.278;2024-02-23T11:20:22;94582.94;;;14.54;49.47
12803;BME280;6465;42.700;23.278;2024-02-23T11:22:52;94569.97;;;14.51;49.06
12803;BME280;6465;42.700;23.278;2024-02-23T11:25:19;94573.47;;;14.63;49.45
12803;BME280;6465;42.700;23.278;2024-02-23T11:27:49;94572.78;;;14.61;48.74
12803;BME280;6465;42.700;23.278;2024-02-23T11:30:17;94576.47;;;14.58;48.79
12803;BME280;6465;42.700;23.278;2024-02-23T11:32:45;94569.63;;;14.56;49.29
12803;BME280;6465;42.700;23.278;2024-02-23T11:35:15;94567.25;;;14.64;48.45
12803;BME280;6465;42.700;23.278;2024-02-23T11:37:48;94574.13;;;14.78;48.28
12803;BME280;6465;42.700;23.278;2024-02-23T11:40:18;94565.81;;;14.95;46.57
12803;BME280;6465;42.700;23.278;2024-02-23T11:42:45;94561.59;;;14.92;47.93
12803;BME280;6465;42.700;23.278;2024-02-23T11:45:13;94547.47;;;14.93;48.17
12803;BME280;6465;42.700;23.278;2024-02-23T11:47:40;94563.88;;;14.97;47.47
12803;BME280;6465;42.700;23.278;2024-02-23T11:50:10;94543.13;;;14.81;48.16
12803;BME280;6465;42.700;23.278;2024-02-23T11:52:38;94551.16;;;14.80;47.61
12803;BME280;6465;42.700;23.278;2024-02-23T11:55:06;94549.81;;;14.74;47.52
12803;BME280;6465;42.700;23.278;2024-02-23T11:57:34;94552.09;;;14.79;47.70
12803;BME280;6465;42.700;23.278;2024-02-23T12:00:01;94556.88;;;14.74;48.06
12803;BME280;6465;42.700;23.278;2024-02-23T12:02:28;94537.91;;;14.68;47.89
12803;BME280;6465;42.700;23.278;2024-02-23T12:04:55;94551.72;;;14.72;47.70
12803;BME280;6465;42.700;23.278;2024-02-23T12:07:22;94547.78;;;14.78;48.03
12803;BME280;6465;42.700;23.278;2024-02-23T12:09:53;94527.63;;;14.77;47.63
12803;BME280;6465;42.700;23.278;2024-02-23T12:12:20;94531.22;;;14.76;47.95
12803;BME280;6465;42.700;23.278;2024-02-23T12:14:47;94535.53;;;14.65;47.96
12803;BME280;6465;42.700;23.278;2024-02-23T12:17:14;94533.63;;;14.68;47.61
12803;BME280;6465;42.700;23.278;2024-02-23T12:19:41;94540.44;;;14.70;48.10
12803;BME280;6465;42.700;23.278;2024-02-23T12:22:10;94536.25;;;14.68;48.35
12803;BME280;6465;42.700;23.278;2024-02-23T12:24:37;94540.53;;;14.68;47.77
12803;BME280;6465;42.700;23.278;2024-02-23T12:27:08;94521.41;;;14.78;47.16
12803;BME280;6465;42.700;23.278;2024-02-23T12:29:35;94524.50;;;14.72;47.43
12803;BME280;6465;42.700;23.278;2024-02-23T12:32:03;94528.47;;;14.77;47.81
12803;BME280;6465;42.700;23.278;2024-02-23T12:34:30;94524.06;;;14.78;48.54
12803;BME280;6465;42.700;23.278;2024-02-23T12:36:57;94513.81;;;15.30;60.92
12803;BME280;6465;42.700;23.278;2024-02-23T12:39:24;94520.06;;;15.52;48.19
12803;BME280;6465;42.700;23.278;2024-02-23T12:41:52;94517.69;;;15.49;46.94
12803;BME280;6465;42.700;23.278;2024-02-23T12:44:21;94507.47;;;15.33;47.03
12803;BME280;6465;42.700;23.278;2024-02-23T12:46:48;94503.16;;;15.21;46.46
12803;BME280;6465;42.700;23.278;2024-02-23T12:49:15;94496.31;;;15.29;46.13
12803;BME280;6465;42.700;23.278;2024-02-23T12:51:42;94485.06;;;15.27;46.84
12803;BME280;6465;42.700;23.278;2024-02-23T12:54:09;94499.56;;;15.22;45.88
12803;BME280;6465;42.700;23.278;2024-02-23T12:56:36;94490.31;;;15.16;46.87
12803;BME280;6465;42.700;23.278;2024-02-23T12:59:03;94478.91;;;15.04;46.29
12803;BME280;6465;42.700;23.278;2024-02-23T13:01:32;94486.34;;;15.11;46.40
12803;BME280;6465;42.700;23.278;2024-02-23T13:04:02;94485.25;;;15.02;46.68
12803;BME280;6465;42.700;23.278;2024-02-23T13:06:29;94486.72;;;15.06;46.71
12803;BME280;6465;42.700;23.278;2024-02-23T13:08:56;94493.94;;;15.15;46.89